Needmore, Kentucky
Current Conditions -  °F | °C
As of 5:15 AM on Tuesday 27 Jan 2015 (Local Time) from KFGX Reporting Station
Light Snow Light Snow  
Wind Chill: 13°   Ceiling: 4800
Heat Index: 19°   Visibility: 5mi
Dew Point: 16°   Wind: 5mph
Humidity: 87%   Direction: 30°NNE
Pressure: 29.93"   Gusts: NA
Location:  38.4934°N, 83.7754°W
Report Text: KFGX 271015Z AUTO 03004KT 5SM -SN SCT043 BKN048 OVC060 M07/M09 A2993 RMK AO2 T10701088
Loading
Personal Weather Stations






























Interactive Weather Map New forecast layout! Learn more

10-Day Weather Forecast

Advertisements
Track Severe Weather on mobile